sensor_id;sensor_type;location;lat;lon;timestamp;P1;durP1;ratioP1;P2;durP2;ratioP2
17424;SDS011;8830;50.978;5.058;2022-11-18T00:01:51;2.70;;;1.60;;
17424;SDS011;8830;50.978;5.058;2022-11-18T00:04:18;4.50;;;1.30;;
17424;SDS011;8830;50.978;5.058;2022-11-18T00:06:48;2.97;;;1.60;;
17424;SDS011;8830;50.978;5.058;2022-11-18T00:09:15;5.07;;;1.57;;
17424;SDS011;8830;50.978;5.058;2022-11-18T00:11:41;4.63;;;1.67;;
17424;SDS011;8830;50.978;5.058;2022-11-18T00:14:37;6.60;;;1.80;;
17424;SDS011;8830;50.978;5.058;2022-11-18T00:17:04;3.83;;;1.40;;
17424;SDS011;8830;50.978;5.058;2022-11-18T00:19:33;3.03;;;1.10;;
17424;SDS011;8830;50.978;5.058;2022-11-18T00:22:03;3.30;;;1.03;;
17424;SDS011;8830;50.978;5.058;2022-11-18T00:24:31;3.10;;;1.47;;
17424;SDS011;8830;50.978;5.058;2022-11-18T00:26:58;2.33;;;1.40;;
17424;SDS011;8830;50.978;5.058;2022-11-18T00:29:25;4.73;;;1.53;;
17424;SDS011;8830;50.978;5.058;2022-11-18T00:31:52;3.37;;;1.20;;
17424;SDS011;8830;50.978;5.058;2022-11-18T00:34:19;1.70;;;0.97;;
17424;SDS011;8830;50.978;5.058;2022-11-18T00:36:46;3.53;;;1.00;;
17424;SDS011;8830;50.978;5.058;2022-11-18T00:39:16;3.20;;;1.07;;
17424;SDS011;8830;50.978;5.058;2022-11-18T00:41:44;3.47;;;1.40;;
17424;SDS011;8830;50.978;5.058;2022-11-18T00:44:29;1.90;;;1.20;;
17424;SDS011;8830;50.978;5.058;2022-11-18T00:46:56;2.90;;;1.30;;
17424;SDS011;8830;50.978;5.058;2022-11-18T00:49:23;2.90;;;1.33;;
17424;SDS011;8830;50.978;5.058;2022-11-18T00:51:50;5.23;;;0.90;;
17424;SDS011;8830;50.978;5.058;2022-11-18T00:54:19;3.67;;;1.23;;
17424;SDS011;8830;50.978;5.058;2022-11-18T00:56:46;3.30;;;0.90;;
17424;SDS011;8830;50.978;5.058;2022-11-18T00:59:13;4.50;;;1.23;;
17424;SDS011;8830;50.978;5.058;2022-11-18T01:01:40;2.83;;;0.97;;
17424;SDS011;8830;50.978;5.058;2022-11-18T01:04:07;2.67;;;0.90;;
17424;SDS011;8830;50.978;5.058;2022-11-18T01:06:35;1.43;;;1.00;;
17424;SDS011;8830;50.978;5.058;2022-11-18T01:09:02;4.37;;;1.30;;
17424;SDS011;8830;50.978;5.058;2022-11-18T01:11:30;2.13;;;1.27;;
17424;SDS011;8830;50.978;5.058;2022-11-18T01:14:14;5.00;;;1.43;;
17424;SDS011;8830;50.978;5.058;2022-11-18T01:16:42;3.97;;;1.43;;
17424;SDS011;8830;50.978;5.058;2022-11-18T01:19:16;2.20;;;1.40;;
17424;SDS011;8830;50.978;5.058;2022-11-18T01:21:43;1.70;;;1.20;;
17424;SDS011;8830;50.978;5.058;2022-11-18T01:24:09;3.07;;;1.37;;
17424;SDS011;8830;50.978;5.058;2022-11-18T01:26:38;4.77;;;1.40;;
17424;SDS011;8830;50.978;5.058;2022-11-18T01:29:06;4.77;;;1.37;;
17424;SDS011;8830;50.978;5.058;2022-11-18T01:31:33;2.50;;;0.90;;
17424;SDS011;8830;50.978;5.058;2022-11-18T01:34:00;6.07;;;2.03;;
17424;SDS011;8830;50.978;5.058;2022-11-18T01:36:27;6.43;;;2.43;;
17424;SDS011;8830;50.978;5.058;2022-11-18T01:38:55;2.40;;;1.37;;
17424;SDS011;8830;50.978;5.058;2022-11-18T01:41:22;3.17;;;1.20;;
17424;SDS011;8830;50.978;5.058;2022-11-18T01:43:53;3.43;;;1.30;;
17424;SDS011;8830;50.978;5.058;2022-11-18T01:46:22;3.63;;;1.30;;
17424;SDS011;8830;50.978;5.058;2022-11-18T01:48:51;3.70;;;1.57;;
17424;SDS011;8830;50.978;5.058;2022-11-18T01:51:26;3.83;;;1.57;;
17424;SDS011;8830;50.978;5.058;2022-11-18T01:53:58;2.60;;;1.60;;
17424;SDS011;8830;50.978;5.058;2022-11-18T01:56:32;1.70;;;1.03;;
17424;SDS011;8830;50.978;5.058;2022-11-18T01:59:06;2.37;;;1.70;;
17424;SDS011;8830;50.978;5.058;2022-11-18T02:01:36;3.97;;;1.50;;
17424;SDS011;8830;50.978;5.058;2022-11-18T02:04:03;2.03;;;1.33;;
17424;SDS011;8830;50.978;5.058;2022-11-18T02:06:32;2.70;;;1.40;;
17424;SDS011;8830;50.978;5.058;2022-11-18T02:09:00;1.70;;;1.40;;
17424;SDS011;8830;50.978;5.058;2022-11-18T02:11:28;3.37;;;1.30;;
17424;SDS011;8830;50.978;5.058;2022-11-18T02:14:15;4.20;;;1.43;;
17424;SDS011;8830;50.978;5.058;2022-11-18T02:16:48;3.13;;;1.33;;
17424;SDS011;8830;50.978;5.058;2022-11-18T02:19:26;3.23;;;1.57;;
17424;SDS011;8830;50.978;5.058;2022-11-18T02:22:24;2.47;;;1.30;;
17424;SDS011;8830;50.978;5.058;2022-11-18T02:25:07;2.47;;;1.47;;
17424;SDS011;8830;50.978;5.058;2022-11-18T02:27:53;4.37;;;1.40;;
17424;SDS011;8830;50.978;5.058;2022-11-18T02:30:33;3.03;;;1.53;;
17424;SDS011;8830;50.978;5.058;2022-11-18T02:33:07;3.87;;;1.37;;
17424;SDS011;8830;50.978;5.058;2022-11-18T02:35:38;5.63;;;1.50;;
17424;SDS011;8830;50.978;5.058;2022-11-18T02:38:09;2.10;;;1.40;;
17424;SDS011;8830;50.978;5.058;2022-11-18T02:40:39;2.37;;;1.30;;
17424;SDS011;8830;50.978;5.058;2022-11-18T02:43:10;4.97;;;1.20;;
17424;SDS011;8830;50.978;5.058;2022-11-18T02:45:43;4.20;;;1.47;;
17424;SDS011;8830;50.978;5.058;2022-11-18T02:48:14;3.07;;;1.37;;
17424;SDS011;8830;50.978;5.058;2022-11-18T02:50:44;2.57;;;1.10;;
17424;SDS011;8830;50.978;5.058;2022-11-18T02:53:15;4.37;;;1.40;;
17424;SDS011;8830;50.978;5.058;2022-11-18T02:55:45;3.17;;;1.10;;
17424;SDS011;8830;50.978;5.058;2022-11-18T02:58:14;2.87;;;1.67;;
17424;SDS011;8830;50.978;5.058;2022-11-18T03:00:51;2.50;;;1.60;;
17424;SDS011;8830;50.978;5.058;2022-11-18T03:03:22;2.17;;;1.33;;
17424;SDS011;8830;50.978;5.058;2022-11-18T03:05:52;3.33;;;1.30;;
17424;SDS011;8830;50.978;5.058;2022-11-18T03:08:34;3.43;;;1.60;;
17424;SDS011;8830;50.978;5.058;2022-11-18T03:11:06;3.50;;;1.43;;
17424;SDS011;8830;50.978;5.058;2022-11-18T03:13:41;2.60;;;1.50;;
17424;SDS011;8830;50.978;5.058;2022-11-18T03:16:21;4.47;;;1.67;;
17424;SDS011;8830;50.978;5.058;2022-11-18T03:18:53;2.33;;;1.13;;
17424;SDS011;8830;50.978;5.058;2022-11-18T03:21:29;3.00;;;1.37;;
17424;SDS011;8830;50.978;5.058;2022-11-18T03:24:03;4.20;;;1.50;;
17424;SDS011;8830;50.978;5.058;2022-11-18T03:26:35;1.40;;;1.30;;
17424;SDS011;8830;50.978;5.058;2022-11-18T03:29:06;2.40;;;1.20;;
17424;SDS011;8830;50.978;5.058;2022-11-18T03:31:40;5.27;;;1.60;;
17424;SDS011;8830;50.978;5.058;2022-11-18T03:34:13;3.80;;;1.73;;
17424;SDS011;8830;50.978;5.058;2022-11-18T03:36:46;1.73;;;1.23;;
17424;SDS011;8830;50.978;5.058;2022-11-18T03:39:17;3.43;;;1.30;;
17424;SDS011;8830;50.978;5.058;2022-11-18T03:41:47;4.00;;;1.60;;
17424;SDS011;8830;50.978;5.058;2022-11-18T03:44:22;3.77;;;1.20;;
17424;SDS011;8830;50.978;5.058;2022-11-18T03:46:58;1.87;;;1.30;;
17424;SDS011;8830;50.978;5.058;2022-11-18T03:49:32;2.07;;;1.23;;
17424;SDS011;8830;50.978;5.058;2022-11-18T03:52:01;2.07;;;1.33;;
17424;SDS011;8830;50.978;5.058;2022-11-18T03:54:34;1.60;;;1.30;;
17424;SDS011;8830;50.978;5.058;2022-11-18T03:57:05;4.13;;;1.47;;
17424;SDS011;8830;50.978;5.058;2022-11-18T03:59:38;2.13;;;1.60;;
17424;SDS011;8830;50.978;5.058;2022-11-18T04:02:10;1.93;;;1.20;;
17424;SDS011;8830;50.978;5.058;2022-11-18T04:04:39;3.53;;;1.60;;
17424;SDS011;8830;50.978;5.058;2022-11-18T04:07:08;3.13;;;1.57;;
17424;SDS011;8830;50.978;5.058;2022-11-18T04:09:40;3.10;;;1.67;;
17424;SDS011;8830;50.978;5.058;2022-11-18T04:12:15;6.67;;;1.60;;
17424;SDS011;8830;50.978;5.058;2022-11-18T04:14:44;2.27;;;1.67;;
17424;SDS011;8830;50.978;5.058;2022-11-18T04:17:15;3.87;;;1.87;;
17424;SDS011;8830;50.978;5.058;2022-11-18T04:19:45;7.40;;;1.80;;
17424;SDS011;8830;50.978;5.058;2022-11-18T04:22:13;2.00;;;1.50;;
17424;SDS011;8830;50.978;5.058;2022-11-18T04:24:40;2.67;;;1.53;;
17424;SDS011;8830;50.978;5.058;2022-11-18T04:27:07;4.33;;;1.80;;
17424;SDS011;8830;50.978;5.058;2022-11-18T04:29:34;3.77;;;1.60;;
17424;SDS011;8830;50.978;5.058;2022-11-18T04:32:01;4.10;;;1.90;;
17424;SDS011;8830;50.978;5.058;2022-11-18T04:34:31;3.27;;;2.20;;
17424;SDS011;8830;50.978;5.058;2022-11-18T04:36:58;2.00;;;1.60;;
17424;SDS011;8830;50.978;5.058;2022-11-18T04:39:26;2.27;;;1.50;;
17424;SDS011;8830;50.978;5.058;2022-11-18T04:41:53;5.00;;;1.70;;
17424;SDS011;8830;50.978;5.058;2022-11-18T04:44:23;3.23;;;1.67;;
17424;SDS011;8830;50.978;5.058;2022-11-18T04:46:51;3.00;;;1.77;;
17424;SDS011;8830;50.978;5.058;2022-11-18T04:49:18;3.10;;;1.80;;
17424;SDS011;8830;50.978;5.058;2022-11-18T04:51:47;3.83;;;1.77;;
17424;SDS011;8830;50.978;5.058;2022-11-18T04:54:14;2.33;;;1.80;;
17424;SDS011;8830;50.978;5.058;2022-11-18T04:56:41;3.27;;;1.70;;
17424;SDS011;8830;50.978;5.058;2022-11-18T04:59:09;2.33;;;1.70;;
17424;SDS011;8830;50.978;5.058;2022-11-18T05:01:37;6.83;;;1.70;;
17424;SDS011;8830;50.978;5.058;2022-11-18T05:04:04;2.33;;;1.53;;
17424;SDS011;8830;50.978;5.058;2022-11-18T05:06:32;2.93;;;1.90;;
17424;SDS011;8830;50.978;5.058;2022-11-18T05:09:00;2.97;;;1.80;;
17424;SDS011;8830;50.978;5.058;2022-11-18T05:11:27;3.97;;;2.30;;
17424;SDS011;8830;50.978;5.058;2022-11-18T05:14:12;3.50;;;1.97;;
17424;SDS011;8830;50.978;5.058;2022-11-18T05:16:39;1.80;;;1.67;;
17424;SDS011;8830;50.978;5.058;2022-11-18T05:19:06;2.27;;;1.63;;
17424;SDS011;8830;50.978;5.058;2022-11-18T05:21:33;1.97;;;1.67;;
17424;SDS011;8830;50.978;5.058;2022-11-18T05:24:02;3.30;;;1.47;;
17424;SDS011;8830;50.978;5.058;2022-11-18T05:26:30;3.70;;;2.03;;
17424;SDS011;8830;50.978;5.058;2022-11-18T05:28:57;3.10;;;1.83;;
17424;SDS011;8830;50.978;5.058;2022-11-18T05:31:24;2.43;;;2.23;;
17424;SDS011;8830;50.978;5.058;2022-11-18T05:33:51;3.70;;;1.90;;
17424;SDS011;8830;50.978;5.058;2022-11-18T05:36:19;6.00;;;2.10;;
17424;SDS011;8830;50.978;5.058;2022-11-18T05:38:46;1.97;;;1.83;;
17424;SDS011;8830;50.978;5.058;2022-11-18T05:41:16;5.63;;;2.10;;
17424;SDS011;8830;50.978;5.058;2022-11-18T05:43:58;3.50;;;2.00;;
17424;SDS011;8830;50.978;5.058;2022-11-18T05:46:26;3.43;;;2.40;;
17424;SDS011;8830;50.978;5.058;2022-11-18T05:48:53;4.17;;;2.07;;
17424;SDS011;8830;50.978;5.058;2022-11-18T05:51:20;4.73;;;2.70;;
17424;SDS011;8830;50.978;5.058;2022-11-18T05:53:48;6.53;;;2.97;;
17424;SDS011;8830;50.978;5.058;2022-11-18T05:56:19;7.63;;;2.20;;
17424;SDS011;8830;50.978;5.058;2022-11-18T05:58:49;5.00;;;2.53;;
17424;SDS011;8830;50.978;5.058;2022-11-18T06:01:16;3.17;;;2.37;;
17424;SDS011;8830;50.978;5.058;2022-11-18T06:03:47;5.63;;;2.30;;
17424;SDS011;8830;50.978;5.058;2022-11-18T06:06:15;6.70;;;2.40;;
17424;SDS011;8830;50.978;5.058;2022-11-18T06:08:49;3.37;;;2.03;;
17424;SDS011;8830;50.978;5.058;2022-11-18T06:11:21;4.53;;;2.57;;
17424;SDS011;8830;50.978;5.058;2022-11-18T06:13:52;4.13;;;2.30;;
17424;SDS011;8830;50.978;5.058;2022-11-18T06:16:24;8.23;;;4.10;;
17424;SDS011;8830;50.978;5.058;2022-11-18T06:18:55;5.30;;;2.60;;
17424;SDS011;8830;50.978;5.058;2022-11-18T06:21:25;3.80;;;2.30;;
17424;SDS011;8830;50.978;5.058;2022-11-18T06:23:53;6.53;;;2.70;;
17424;SDS011;8830;50.978;5.058;2022-11-18T06:26:23;9.63;;;2.80;;
17424;SDS011;8830;50.978;5.058;2022-11-18T06:28:50;4.67;;;3.07;;
17424;SDS011;8830;50.978;5.058;2022-11-18T06:31:20;6.63;;;2.50;;
17424;SDS011;8830;50.978;5.058;2022-11-18T06:33:47;4.37;;;2.60;;
17424;SDS011;8830;50.978;5.058;2022-11-18T06:36:14;5.50;;;3.20;;
17424;SDS011;8830;50.978;5.058;2022-11-18T06:38:41;5.30;;;2.70;;
17424;SDS011;8830;50.978;5.058;2022-11-18T06:41:09;4.67;;;3.23;;
17424;SDS011;8830;50.978;5.058;2022-11-18T06:43:37;4.03;;;2.60;;
17424;SDS011;8830;50.978;5.058;2022-11-18T06:46:06;7.17;;;3.70;;
17424;SDS011;8830;50.978;5.058;2022-11-18T06:48:51;6.17;;;3.50;;
17424;SDS011;8830;50.978;5.058;2022-11-18T06:51:18;5.50;;;2.83;;
17424;SDS011;8830;50.978;5.058;2022-11-18T06:53:48;5.23;;;2.40;;
17424;SDS011;8830;50.978;5.058;2022-11-18T06:56:16;6.83;;;3.10;;
17424;SDS011;8830;50.978;5.058;2022-11-18T06:58:46;4.10;;;3.20;;
17424;SDS011;8830;50.978;5.058;2022-11-18T07:01:13;10.60;;;3.13;;
17424;SDS011;8830;50.978;5.058;2022-11-18T07:03:42;5.33;;;2.80;;
17424;SDS011;8830;50.978;5.058;2022-11-18T07:06:12;5.97;;;2.93;;
17424;SDS011;8830;50.978;5.058;2022-11-18T07:08:40;5.47;;;3.00;;
17424;SDS011;8830;50.978;5.058;2022-11-18T07:11:08;6.07;;;2.63;;
17424;SDS011;8830;50.978;5.058;2022-11-18T07:13:36;8.33;;;3.67;;
17424;SDS011;8830;50.978;5.058;2022-11-18T07:16:06;7.90;;;3.40;;
17424;SDS011;8830;50.978;5.058;2022-11-18T07:18:35;8.93;;;3.17;;
17424;SDS011;8830;50.978;5.058;2022-11-18T07:21:04;4.93;;;3.03;;
17424;SDS011;8830;50.978;5.058;2022-11-18T07:23:33;3.20;;;2.67;;
17424;SDS011;8830;50.978;5.058;2022-11-18T07:26:01;7.13;;;3.20;;
17424;SDS011;8830;50.978;5.058;2022-11-18T07:28:31;9.17;;;3.10;;
17424;SDS011;8830;50.978;5.058;2022-11-18T07:31:00;6.70;;;3.80;;
17424;SDS011;8830;50.978;5.058;2022-11-18T07:33:30;4.47;;;2.90;;
17424;SDS011;8830;50.978;5.058;2022-11-18T07:36:01;7.47;;;3.63;;
17424;SDS011;8830;50.978;5.058;2022-11-18T07:38:29;4.97;;;2.90;;
17424;SDS011;8830;50.978;5.058;2022-11-18T07:41:02;9.03;;;2.80;;
17424;SDS011;8830;50.978;5.058;2022-11-18T07:43:30;3.57;;;2.70;;
17424;SDS011;8830;50.978;5.058;2022-11-18T07:45:57;6.03;;;3.00;;
17424;SDS011;8830;50.978;5.058;2022-11-18T07:48:24;5.67;;;2.83;;
17424;SDS011;8830;50.978;5.058;2022-11-18T07:50:53;7.20;;;3.40;;
17424;SDS011;8830;50.978;5.058;2022-11-18T07:53:20;7.07;;;3.20;;
17424;SDS011;8830;50.978;5.058;2022-11-18T07:55:47;3.30;;;2.73;;
17424;SDS011;8830;50.978;5.058;2022-11-18T07:58:14;10.10;;;2.90;;
17424;SDS011;8830;50.978;5.058;2022-11-18T08:00:41;8.37;;;2.90;;
17424;SDS011;8830;50.978;5.058;2022-11-18T08:03:08;9.57;;;3.10;;
17424;SDS011;8830;50.978;5.058;2022-11-18T08:05:35;7.03;;;3.30;;
17424;SDS011;8830;50.978;5.058;2022-11-18T08:08:04;8.30;;;3.00;;
17424;SDS011;8830;50.978;5.058;2022-11-18T08:10:31;5.80;;;2.87;;
17424;SDS011;8830;50.978;5.058;2022-11-18T08:12:58;10.20;;;3.50;;
17424;SDS011;8830;50.978;5.058;2022-11-18T08:15:25;9.17;;;3.00;;
17424;SDS011;8830;50.978;5.058;2022-11-18T08:17:52;8.63;;;3.50;;
17424;SDS011;8830;50.978;5.058;2022-11-18T08:20:19;7.20;;;3.00;;
17424;SDS011;8830;50.978;5.058;2022-11-18T08:22:51;5.67;;;3.40;;
17424;SDS011;8830;50.978;5.058;2022-11-18T08:25:22;5.33;;;3.50;;
17424;SDS011;8830;50.978;5.058;2022-11-18T08:27:49;8.93;;;3.37;;
17424;SDS011;8830;50.978;5.058;2022-11-18T08:30:17;4.53;;;2.63;;
17424;SDS011;8830;50.978;5.058;2022-11-18T08:32:45;10.53;;;3.33;;
17424;SDS011;8830;50.978;5.058;2022-11-18T08:35:12;7.60;;;2.80;;
17424;SDS011;8830;50.978;5.058;2022-11-18T08:37:41;4.53;;;2.37;;
17424;SDS011;8830;50.978;5.058;2022-11-18T08:40:09;11.90;;;2.80;;
17424;SDS011;8830;50.978;5.058;2022-11-18T08:42:38;8.20;;;4.60;;
17424;SDS011;8830;50.978;5.058;2022-11-18T08:45:05;4.70;;;2.63;;
17424;SDS011;8830;50.978;5.058;2022-11-18T08:47:34;6.77;;;2.43;;
17424;SDS011;8830;50.978;5.058;2022-11-18T08:50:02;6.47;;;2.20;;
17424;SDS011;8830;50.978;5.058;2022-11-18T08:52:31;4.20;;;2.30;;
17424;SDS011;8830;50.978;5.058;2022-11-18T08:54:59;3.63;;;2.17;;
17424;SDS011;8830;50.978;5.058;2022-11-18T08:57:26;5.43;;;2.40;;
17424;SDS011;8830;50.978;5.058;2022-11-18T08:59:54;5.83;;;2.50;;
17424;SDS011;8830;50.978;5.058;2022-11-18T09:02:22;3.23;;;2.17;;
17424;SDS011;8830;50.978;5.058;2022-11-18T09:04:49;3.60;;;2.20;;
17424;SDS011;8830;50.978;5.058;2022-11-18T09:07:17;8.77;;;2.47;;
17424;SDS011;8830;50.978;5.058;2022-11-18T09:09:44;9.43;;;2.43;;
17424;SDS011;8830;50.978;5.058;2022-11-18T09:12:11;8.63;;;2.07;;
17424;SDS011;8830;50.978;5.058;2022-11-18T09:14:41;6.77;;;2.37;;
17424;SDS011;8830;50.978;5.058;2022-11-18T09:17:10;3.47;;;1.57;;
17424;SDS011;8830;50.978;5.058;2022-11-18T09:19:38;9.97;;;2.57;;
17424;SDS011;8830;50.978;5.058;2022-11-18T09:22:05;6.93;;;2.23;;
17424;SDS011;8830;50.978;5.058;2022-11-18T09:24:33;6.67;;;2.93;;
17424;SDS011;8830;50.978;5.058;2022-11-18T09:27:01;6.80;;;2.20;;
17424;SDS011;8830;50.978;5.058;2022-11-18T09:29:29;6.93;;;2.20;;
17424;SDS011;8830;50.978;5.058;2022-11-18T09:31:56;5.90;;;2.03;;
17424;SDS011;8830;50.978;5.058;2022-11-18T09:34:27;5.37;;;2.03;;
17424;SDS011;8830;50.978;5.058;2022-11-18T09:36:54;7.70;;;2.07;;
17424;SDS011;8830;50.978;5.058;2022-11-18T09:39:22;5.47;;;2.40;;
17424;SDS011;8830;50.978;5.058;2022-11-18T09:41:53;9.67;;;2.57;;
17424;SDS011;8830;50.978;5.058;2022-11-18T09:44:39;7.37;;;2.07;;
17424;SDS011;8830;50.978;5.058;2022-11-18T09:47:19;5.77;;;2.10;;
17424;SDS011;8830;50.978;5.058;2022-11-18T09:49:52;3.93;;;2.27;;
17424;SDS011;8830;50.978;5.058;2022-11-18T09:52:22;7.83;;;2.27;;
17424;SDS011;8830;50.978;5.058;2022-11-18T09:54:54;6.87;;;2.23;;
17424;SDS011;8830;50.978;5.058;2022-11-18T09:57:22;4.77;;;2.20;;
17424;SDS011;8830;50.978;5.058;2022-11-18T09:59:51;7.17;;;2.37;;
17424;SDS011;8830;50.978;5.058;2022-11-18T10:02:24;8.90;;;3.30;;
17424;SDS011;8830;50.978;5.058;2022-11-18T10:05:12;4.97;;;2.60;;
17424;SDS011;8830;50.978;5.058;2022-11-18T10:07:43;6.07;;;2.20;;
17424;SDS011;8830;50.978;5.058;2022-11-18T10:10:18;5.57;;;2.30;;
17424;SDS011;8830;50.978;5.058;2022-11-18T10:12:51;6.03;;;3.40;;
17424;SDS011;8830;50.978;5.058;2022-11-18T10:15:23;8.10;;;2.47;;
17424;SDS011;8830;50.978;5.058;2022-11-18T10:17:59;4.83;;;2.20;;
17424;SDS011;8830;50.978;5.058;2022-11-18T10:20:35;5.20;;;2.07;;
17424;SDS011;8830;50.978;5.058;2022-11-18T10:23:11;15.47;;;2.67;;
17424;SDS011;8830;50.978;5.058;2022-11-18T10:25:41;5.33;;;2.93;;
17424;SDS011;8830;50.978;5.058;2022-11-18T10:28:13;4.40;;;1.97;;
17424;SDS011;8830;50.978;5.058;2022-11-18T10:30:43;4.43;;;1.80;;
17424;SDS011;8830;50.978;5.058;2022-11-18T10:33:17;6.43;;;2.20;;
17424;SDS011;8830;50.978;5.058;2022-11-18T10:36:10;5.63;;;1.90;;
17424;SDS011;8830;50.978;5.058;2022-11-18T10:38:44;4.03;;;2.20;;
17424;SDS011;8830;50.978;5.058;2022-11-18T10:41:12;5.50;;;2.50;;
17424;SDS011;8830;50.978;5.058;2022-11-18T10:43:46;4.87;;;1.80;;
17424;SDS011;8830;50.978;5.058;2022-11-18T10:46:16;7.17;;;2.13;;
17424;SDS011;8830;50.978;5.058;2022-11-18T10:48:48;5.33;;;1.83;;
17424;SDS011;8830;50.978;5.058;2022-11-18T10:51:43;4.30;;;1.90;;
17424;SDS011;8830;50.978;5.058;2022-11-18T10:54:14;6.13;;;1.90;;
17424;SDS011;8830;50.978;5.058;2022-11-18T10:56:43;3.67;;;1.80;;
17424;SDS011;8830;50.978;5.058;2022-11-18T10:59:16;2.80;;;1.77;;
17424;SDS011;8830;50.978;5.058;2022-11-18T11:01:57;6.33;;;2.60;;
17424;SDS011;8830;50.978;5.058;2022-11-18T11:04:27;3.90;;;1.90;;
17424;SDS011;8830;50.978;5.058;2022-11-18T11:06:57;5.37;;;2.40;;
17424;SDS011;8830;50.978;5.058;2022-11-18T11:09:26;3.93;;;2.23;;
17424;SDS011;8830;50.978;5.058;2022-11-18T11:11:56;5.03;;;1.80;;
17424;SDS011;8830;50.978;5.058;2022-11-18T11:14:27;4.07;;;1.97;;
17424;SDS011;8830;50.978;5.058;2022-11-18T11:17:01;4.93;;;1.90;;
17424;SDS011;8830;50.978;5.058;2022-11-18T11:22:18;4.93;;;2.00;;
17424;SDS011;8830;50.978;5.058;2022-11-18T11:24:45;5.70;;;1.70;;
17424;SDS011;8830;50.978;5.058;2022-11-18T11:27:20;6.93;;;1.80;;
17424;SDS011;8830;50.978;5.058;2022-11-18T11:30:17;6.40;;;1.97;;
17424;SDS011;8830;50.978;5.058;2022-11-18T11:32:59;4.57;;;2.07;;
17424;SDS011;8830;50.978;5.058;2022-11-18T11:35:39;3.40;;;1.90;;
17424;SDS011;8830;50.978;5.058;2022-11-18T11:38:18;3.87;;;1.60;;
17424;SDS011;8830;50.978;5.058;2022-11-18T11:41:01;5.03;;;1.97;;
17424;SDS011;8830;50.978;5.058;2022-11-18T11:43:40;4.73;;;1.80;;
17424;SDS011;8830;50.978;5.058;2022-11-18T11:46:25;5.40;;;1.57;;
17424;SDS011;8830;50.978;5.058;2022-11-18T11:48:59;5.87;;;2.47;;
17424;SDS011;8830;50.978;5.058;2022-11-18T11:51:39;13.30;;;1.80;;
17424;SDS011;8830;50.978;5.058;2022-11-18T11:54:20;4.43;;;1.70;;
17424;SDS011;8830;50.978;5.058;2022-11-18T11:56:52;4.57;;;1.43;;
17424;SDS011;8830;50.978;5.058;2022-11-18T11:59:27;4.47;;;1.53;;
17424;SDS011;8830;50.978;5.058;2022-11-18T12:02:06;1.70;;;1.20;;
17424;SDS011;8830;50.978;5.058;2022-11-18T12:04:50;2.80;;;1.40;;
17424;SDS011;8830;50.978;5.058;2022-11-18T12:07:20;5.03;;;1.60;;
17424;SDS011;8830;50.978;5.058;2022-11-18T12:10:04;2.87;;;1.30;;
17424;SDS011;8830;50.978;5.058;2022-11-18T12:12:48;10.50;;;2.37;;
17424;SDS011;8830;50.978;5.058;2022-11-18T12:15:25;5.87;;;1.20;;
17424;SDS011;8830;50.978;5.058;2022-11-18T12:18:09;5.00;;;1.47;;
17424;SDS011;8830;50.978;5.058;2022-11-18T12:20:46;3.77;;;1.77;;
17424;SDS011;8830;50.978;5.058;2022-11-18T12:23:18;2.40;;;1.50;;
17424;SDS011;8830;50.978;5.058;2022-11-18T12:26:05;7.00;;;1.50;;
17424;SDS011;8830;50.978;5.058;2022-11-18T12:28:35;4.60;;;1.47;;
17424;SDS011;8830;50.978;5.058;2022-11-18T12:34:02;4.13;;;1.63;;
17424;SDS011;8830;50.978;5.058;2022-11-18T12:36:44;6.53;;;1.70;;
17424;SDS011;8830;50.978;5.058;2022-11-18T12:54:22;3.13;;;1.17;;
17424;SDS011;8830;50.978;5.058;2022-11-18T12:56:57;3.67;;;1.50;;
17424;SDS011;8830;50.978;5.058;2022-11-18T12:59:30;5.57;;;1.90;;
17424;SDS011;8830;50.978;5.058;2022-11-18T13:02:13;4.77;;;1.10;;
17424;SDS011;8830;50.978;5.058;2022-11-18T13:05:01;2.83;;;1.40;;
17424;SDS011;8830;50.978;5.058;2022-11-18T13:07:30;7.07;;;1.57;;
17424;SDS011;8830;50.978;5.058;2022-11-18T13:10:26;7.47;;;1.93;;
17424;SDS011;8830;50.978;5.058;2022-11-18T13:12:58;7.67;;;1.50;;
17424;SDS011;8830;50.978;5.058;2022-11-18T13:15:36;5.13;;;1.53;;
17424;SDS011;8830;50.978;5.058;2022-11-18T13:18:24;7.23;;;1.30;;
17424;SDS011;8830;50.978;5.058;2022-11-18T13:20:55;6.23;;;1.60;;
17424;SDS011;8830;50.978;5.058;2022-11-18T13:23:44;2.17;;;1.27;;
17424;SDS011;8830;50.978;5.058;2022-11-18T13:26:18;3.33;;;1.43;;
17424;SDS011;8830;50.978;5.058;2022-11-18T13:29:01;4.93;;;1.27;;
17424;SDS011;8830;50.978;5.058;2022-11-18T13:31:41;2.27;;;1.27;;
17424;SDS011;8830;50.978;5.058;2022-11-18T13:34:19;6.17;;;1.60;;
17424;SDS011;8830;50.978;5.058;2022-11-18T13:36:48;3.87;;;1.13;;
17424;SDS011;8830;50.978;5.058;2022-11-18T13:39:20;4.07;;;1.70;;
17424;SDS011;8830;50.978;5.058;2022-11-18T13:41:58;6.07;;;1.33;;
17424;SDS011;8830;50.978;5.058;2022-11-18T13:44:29;2.87;;;1.60;;
17424;SDS011;8830;50.978;5.058;2022-11-18T13:47:04;4.97;;;1.70;;
17424;SDS011;8830;50.978;5.058;2022-11-18T13:49:42;4.90;;;1.80;;
17424;SDS011;8830;50.978;5.058;2022-11-18T13:52:15;4.13;;;1.40;;
17424;SDS011;8830;50.978;5.058;2022-11-18T13:54:47;6.77;;;2.10;;
17424;SDS011;8830;50.978;5.058;2022-11-18T13:57:18;5.07;;;2.27;;
17424;SDS011;8830;50.978;5.058;2022-11-18T13:59:47;6.20;;;2.30;;
17424;SDS011;8830;50.978;5.058;2022-11-18T14:02:17;7.37;;;1.93;;
17424;SDS011;8830;50.978;5.058;2022-11-18T14:04:46;3.77;;;1.80;;
17424;SDS011;8830;50.978;5.058;2022-11-18T14:07:24;5.70;;;2.27;;
17424;SDS011;8830;50.978;5.058;2022-11-18T14:09:55;2.43;;;1.60;;
17424;SDS011;8830;50.978;5.058;2022-11-18T14:12:25;7.17;;;2.47;;
17424;SDS011;8830;50.978;5.058;2022-11-18T14:15:15;4.20;;;1.90;;
17424;SDS011;8830;50.978;5.058;2022-11-18T14:17:58;6.03;;;2.47;;
17424;SDS011;8830;50.978;5.058;2022-11-18T14:20:31;4.33;;;1.97;;
17424;SDS011;8830;50.978;5.058;2022-11-18T14:23:01;3.53;;;2.43;;
17424;SDS011;8830;50.978;5.058;2022-11-18T14:25:37;4.97;;;2.13;;
17424;SDS011;8830;50.978;5.058;2022-11-18T14:28:10;5.20;;;2.30;;
17424;SDS011;8830;50.978;5.058;2022-11-18T14:30:53;5.13;;;3.07;;
17424;SDS011;8830;50.978;5.058;2022-11-18T14:33:27;7.67;;;2.53;;
17424;SDS011;8830;50.978;5.058;2022-11-18T14:35:55;3.37;;;1.90;;
17424;SDS011;8830;50.978;5.058;2022-11-18T14:38:27;2.57;;;1.53;;
17424;SDS011;8830;50.978;5.058;2022-11-18T14:40:57;5.37;;;1.87;;
17424;SDS011;8830;50.978;5.058;2022-11-18T14:43:26;3.63;;;2.73;;
17424;SDS011;8830;50.978;5.058;2022-11-18T14:45:53;8.93;;;3.60;;
17424;SDS011;8830;50.978;5.058;2022-11-18T14:48:23;5.63;;;2.40;;
17424;SDS011;8830;50.978;5.058;2022-11-18T14:50:54;5.37;;;3.07;;
17424;SDS011;8830;50.978;5.058;2022-11-18T14:53:21;4.27;;;2.40;;
17424;SDS011;8830;50.978;5.058;2022-11-18T14:55:53;5.23;;;2.40;;
17424;SDS011;8830;50.978;5.058;2022-11-18T14:58:23;3.57;;;2.03;;
17424;SDS011;8830;50.978;5.058;2022-11-18T15:00:50;6.33;;;3.00;;
17424;SDS011;8830;50.978;5.058;2022-11-18T15:03:20;5.50;;;2.90;;
17424;SDS011;8830;50.978;5.058;2022-11-18T15:05:50;6.77;;;2.83;;
17424;SDS011;8830;50.978;5.058;2022-11-18T15:08:19;6.83;;;4.47;;
17424;SDS011;8830;50.978;5.058;2022-11-18T15:10:46;4.17;;;2.70;;
17424;SDS011;8830;50.978;5.058;2022-11-18T15:13:13;5.53;;;2.80;;
17424;SDS011;8830;50.978;5.058;2022-11-18T15:15:40;6.50;;;2.87;;
17424;SDS011;8830;50.978;5.058;2022-11-18T15:18:07;5.80;;;3.00;;
17424;SDS011;8830;50.978;5.058;2022-11-18T15:20:34;8.63;;;3.07;;
17424;SDS011;8830;50.978;5.058;2022-11-18T15:23:01;17.73;;;11.20;;
17424;SDS011;8830;50.978;5.058;2022-11-18T15:25:29;12.80;;;9.37;;
17424;SDS011;8830;50.978;5.058;2022-11-18T15:27:59;10.73;;;6.87;;
17424;SDS011;8830;50.978;5.058;2022-11-18T15:30:27;33.67;;;17.07;;
17424;SDS011;8830;50.978;5.058;2022-11-18T15:32:54;6.40;;;3.63;;
17424;SDS011;8830;50.978;5.058;2022-11-18T15:35:21;5.33;;;2.80;;
17424;SDS011;8830;50.978;5.058;2022-11-18T15:37:49;4.50;;;2.33;;
17424;SDS011;8830;50.978;5.058;2022-11-18T15:40:17;6.37;;;3.40;;
17424;SDS011;8830;50.978;5.058;2022-11-18T15:42:45;6.20;;;2.87;;
17424;SDS011;8830;50.978;5.058;2022-11-18T15:45:12;3.13;;;2.37;;
17424;SDS011;8830;50.978;5.058;2022-11-18T15:47:40;4.37;;;2.20;;